Glenvar, Virginia
Current Conditions -  °F | °C
As of 3:54 PM on Thursday 20 Nov 2014 (Local Time) from KROA Reporting Station
Few Clouds Few Clouds  
Wind Chill: 51°   Ceiling: Unl
Heat Index: 51°   Visibility: 10mi
Dew Point: 19°   Wind: 8mph
Humidity: 28%   Direction: 270°W
Pressure: 29.99"   Gusts: 20mph
Location:  37.2956°N, 80.1166°W
Report Text: KROA 202054Z 27007G17KT 10SM FEW060 11/M07 A2999 RMK AO2 SLP158 T01061072 53001
Loading
Personal Weather Stations






























Interactive Weather Map New forecast layout! Learn more

10-Day Weather Forecast

Advertisements
Track Severe Weather on mobile